Time;durP1;ratioP1;P1;durP2;ratioP2;P2;SDS_P1;SDS_P2;PMS_P1;PMS_P2;Temp;Humidity;BMP_temperature;BMP_pressure;BME280_temperature;BME280_humidity;BME280_pressure;Samples;Min_cycle;Max_cycle;Signal;HPM_P1;HPM_P2
2022/07/24 00:00:00;;;;;;;12.93;10.25;;;17.70;99.90;;;;;;5015158;28;20033;-87
2022/07/24 00:02:25;;;;;;;10.38;8.95;;;17.70;99.90;;;;;;5015366;28;20043;-85
2022/07/24 00:04:56;;;;;;;13.63;10.43;;;17.60;99.90;;;;;;5016050;28;20040;-87
2022/07/24 00:07:37;;;;;;;13.55;10.70;;;17.60;99.90;;;;;;5033327;28;20037;-85
2022/07/24 00:10:23;;;;;;;11.82;9.85;;;17.60;99.90;;;;;;4996697;28;20054;-85
2022/07/24 00:12:49;;;;;;;11.88;9.70;;;17.50;99.90;;;;;;5016299;28;20517;-86
2022/07/24 00:15:16;;;;;;;11.65;9.48;;;17.50;99.90;;;;;;5015823;28;20067;-86
2022/07/24 00:17:41;;;;;;;12.13;9.95;;;17.50;99.90;;;;;;5015501;28;20030;-86
2022/07/24 00:20:08;;;;;;;12.63;10.23;;;17.50;99.90;;;;;;5014771;28;20030;-86
2022/07/24 00:22:34;;;;;;;11.05;9.35;;;17.50;99.90;;;;;;5016980;28;20480;-85
2022/07/24 00:25:00;;;;;;;12.10;10.07;;;17.40;99.90;;;;;;5030670;28;20087;-86
2022/07/24 00:27:26;;;;;;;14.85;10.35;;;17.40;99.90;;;;;;5017221;28;20460;-86
2022/07/24 00:29:51;;;;;;;10.82;8.77;;;17.40;99.90;;;;;;5013786;28;20058;-85
2022/07/24 00:32:17;;;;;;;12.20;9.07;;;17.40;99.90;;;;;;5013625;28;20033;-85
2022/07/24 00:34:43;;;;;;;12.90;9.27;;;17.40;99.90;;;;;;4997066;28;20124;-87
2022/07/24 00:37:09;;;;;;;10.73;9.23;;;17.40;99.90;;;;;;5010590;28;20037;-85
2022/07/24 00:39:35;;;;;;;12.73;10.25;;;17.40;99.90;;;;;;5009657;28;20026;-85
2022/07/24 00:42:01;;;;;;;11.88;9.77;;;17.30;99.90;;;;;;5006060;28;20044;-85
2022/07/24 00:44:26;;;;;;;11.52;9.38;;;17.20;99.90;;;;;;5010373;28;20053;-85
2022/07/24 00:46:52;;;;;;;11.95;9.73;;;17.20;99.90;;;;;;5008012;28;20033;-85
2022/07/24 00:49:19;;;;;;;11.80;10.23;;;17.20;99.90;;;;;;5012820;28;20048;-84
2022/07/24 00:51:48;;;;;;;14.15;10.70;;;17.10;99.90;;;;;;5006768;28;20041;-85
2022/07/24 00:54:15;;;;;;;15.48;10.48;;;17.10;99.90;;;;;;5013476;28;20472;-85
2022/07/24 00:56:45;;;;;;;13.48;10.93;;;17.00;99.90;;;;;;5039753;28;20093;-85
2022/07/24 00:59:11;;;;;;;12.90;9.98;;;17.00;99.90;;;;;;5001362;28;20030;-84
2022/07/24 01:01:38;;;;;;;14.82;10.25;;;16.90;99.90;;;;;;5022288;28;20105;-85
2022/07/24 01:04:04;;;;;;;13.52;10.43;;;16.90;99.90;;;;;;5012752;28;20045;-85
2022/07/24 01:06:29;;;;;;;16.33;10.63;;;16.90;99.90;;;;;;5020216;28;20413;-84
2022/07/24 01:08:56;;;;;;;13.60;10.23;;;16.90;99.90;;;;;;5008247;28;20058;-85
2022/07/24 01:11:23;;;;;;;13.48;10.95;;;16.90;99.90;;;;;;5011641;28;20025;-84
2022/07/24 01:13:49;;;;;;;14.10;10.65;;;16.80;99.90;;;;;;5011898;28;20029;-85
2022/07/24 01:16:16;;;;;;;14.73;11.15;;;16.80;99.90;;;;;;5026851;28;20726;-85
2022/07/24 01:18:41;;;;;;;13.35;10.90;;;16.80;99.90;;;;;;5011929;28;20071;-85
2022/07/24 01:21:07;;;;;;;14.95;11.57;;;16.80;99.90;;;;;;4996004;28;20033;-85
2022/07/24 01:23:34;;;;;;;14.32;11.65;;;16.80;99.90;;;;;;5029654;28;20409;-85
2022/07/24 01:26:00;;;;;;;13.77;11.25;;;16.80;99.90;;;;;;5028569;28;20037;-85
2022/07/24 01:28:26;;;;;;;13.48;10.85;;;16.70;99.90;;;;;;5028250;28;20037;-86
2022/07/24 01:30:52;;;;;;;16.55;12.00;;;16.70;99.90;;;;;;5027956;28;20034;-84
2022/07/24 01:33:18;;;;;;;12.98;10.80;;;16.60;99.90;;;;;;5012324;28;20522;-85
2022/07/24 01:35:44;;;;;;;14.63;10.93;;;16.60;99.90;;;;;;5012408;28;20029;-85
2022/07/24 01:38:10;;;;;;;13.43;11.20;;;16.50;99.90;;;;;;4995610;28;20080;-85
2022/07/24 01:40:36;;;;;;;15.48;11.75;;;16.60;99.90;;;;;;5008767;28;20375;-85
2022/07/24 01:43:03;;;;;;;15.68;12.05;;;16.60;99.90;;;;;;5011500;28;20136;-85
2022/07/24 01:45:29;;;;;;;15.32;12.07;;;16.60;99.90;;;;;;5011891;28;20360;-84
2022/07/24 01:47:54;;;;;;;14.85;12.20;;;16.50;99.90;;;;;;5028024;28;20034;-84
2022/07/24 01:50:20;;;;;;;16.13;12.13;;;16.50;99.90;;;;;;4995279;28;20029;-85
2022/07/24 01:52:46;;;;;;;14.70;11.02;;;16.50;99.90;;;;;;5028446;28;20112;-85
2022/07/24 01:55:12;;;;;;;14.98;11.85;;;16.50;99.90;;;;;;5011391;28;20109;-85
2022/07/24 01:57:38;;;;;;;15.98;12.40;;;16.50;99.90;;;;;;5044804;28;20494;-85
2022/07/24 02:00:09;;;;;;;15.77;11.43;;;16.50;99.90;;;;;;5010906;28;20026;-85
2022/07/24 02:02:43;;;;;;;15.07;11.93;;;16.50;99.90;;;;;;5017184;28;20052;-85
2022/07/24 02:05:12;;;;;;;15.52;11.68;;;16.40;99.90;;;;;;5018653;28;20044;-87
2022/07/24 02:07:42;;;;;;;15.68;12.20;;;16.40;99.90;;;;;;5031112;28;20033;-85
2022/07/24 02:10:09;;;;;;;13.80;11.02;;;16.40;99.90;;;;;;5008923;28;20049;-87
2022/07/24 02:12:35;;;;;;;17.45;12.18;;;16.30;99.90;;;;;;4987366;28;20033;-85
2022/07/24 02:15:01;;;;;;;14.68;12.13;;;16.40;99.90;;;;;;5015178;28;20168;-87
2022/07/24 02:17:27;;;;;;;14.93;12.00;;;16.30;99.90;;;;;;5030946;28;20033;-87
2022/07/24 02:19:52;;;;;;;17.15;11.15;;;16.30;99.90;;;;;;5014215;28;20036;-84
2022/07/24 02:22:18;;;;;;;13.60;11.23;;;16.30;99.90;;;;;;5014730;28;20116;-85
2022/07/24 02:24:44;;;;;;;14.35;11.13;;;16.20;99.90;;;;;;5014733;28;20392;-86
2022/07/24 02:27:10;;;;;;;11.88;10.38;;;16.20;99.90;;;;;;5014367;28;20510;-85
2022/07/24 02:29:36;;;;;;;17.60;11.68;;;16.20;99.90;;;;;;5022928;28;20072;-86
2022/07/24 02:32:02;;;;;;;18.40;12.68;;;16.20;99.90;;;;;;5025433;28;20043;-85
2022/07/24 02:34:28;;;;;;;14.80;11.88;;;16.10;99.90;;;;;;5022496;28;20053;-85
2022/07/24 02:36:53;;;;;;;15.15;12.43;;;16.10;99.90;;;;;;5015011;28;20026;-85
2022/07/24 02:39:19;;;;;;;16.08;12.93;;;16.00;99.90;;;;;;4997417;28;20077;-85
2022/07/24 02:41:45;;;;;;;15.75;12.50;;;16.00;99.90;;;;;;5014638;28;20037;-85
2022/07/24 02:44:11;;;;;;;18.00;12.50;;;15.90;99.90;;;;;;5014627;28;20499;-86
2022/07/24 02:46:36;;;;;;;15.57;13.18;;;15.90;99.90;;;;;;5014519;28;20744;-86
2022/07/24 02:49:03;;;;;;;16.65;13.02;;;15.90;99.90;;;;;;5013992;28;20550;-86
2022/07/24 02:51:28;;;;;;;17.80;13.25;;;15.90;99.90;;;;;;5014252;28;20125;-88
2022/07/24 02:53:54;;;;;;;16.55;13.25;;;15.90;99.90;;;;;;4982214;28;20127;-87
2022/07/24 02:56:20;;;;;;;16.88;13.18;;;15.90;99.90;;;;;;5013749;28;20030;-88
2022/07/24 02:58:46;;;;;;;17.63;13.27;;;15.90;99.90;;;;;;4997405;28;20099;-85
2022/07/24 03:01:12;;;;;;;17.48;13.07;;;15.80;99.90;;;;;;5026715;28;20037;-86
2022/07/24 03:03:38;;;;;;;14.73;11.98;;;15.80;99.90;;;;;;4993904;28;20034;-87
2022/07/24 03:06:04;;;;;;;15.48;11.50;;;15.80;99.90;;;;;;5010045;28;20393;-87
2022/07/24 03:08:30;;;;;;;16.55;12.32;;;15.80;99.90;;;;;;4993815;28;20038;-85
2022/07/24 03:10:56;;;;;;;14.35;11.30;;;15.80;99.90;;;;;;5013241;28;20030;-86
2022/07/24 03:13:22;;;;;;;16.33;12.90;;;15.80;99.90;;;;;;5026509;28;20080;-86
2022/07/24 03:15:48;;;;;;;15.50;12.40;;;15.80;99.90;;;;;;5009571;28;20492;-85
2022/07/24 03:18:13;;;;;;;15.25;12.68;;;15.80;99.90;;;;;;5025828;28;20088;-86
2022/07/24 03:20:39;;;;;;;16.02;12.43;;;15.70;99.90;;;;;;5026106;28;20033;-86
2022/07/24 03:23:05;;;;;;;16.92;12.68;;;15.70;99.90;;;;;;4977581;28;20105;-86
2022/07/24 03:25:31;;;;;;;15.77;12.48;;;15.70;99.90;;;;;;5026460;28;20017;-87
2022/07/24 03:27:56;;;;;;;14.88;11.95;;;15.70;99.90;;;;;;5009973;28;20026;-86
2022/07/24 03:30:22;;;;;;;14.82;11.85;;;15.70;99.90;;;;;;5025969;28;20523;-87
2022/07/24 03:32:48;;;;;;;15.63;12.00;;;15.70;99.90;;;;;;5025852;28;20112;-86
2022/07/24 03:35:14;;;;;;;15.15;12.60;;;15.70;99.90;;;;;;5025839;28;20034;-87
2022/07/24 03:37:40;;;;;;;16.17;12.27;;;15.70;99.90;;;;;;5026116;28;20026;-87
2022/07/24 03:40:06;;;;;;;15.35;12.20;;;15.70;99.90;;;;;;5026284;28;20049;-87
2022/07/24 03:42:32;;;;;;;16.13;11.52;;;15.60;99.90;;;;;;5009402;28;20428;-85
2022/07/24 03:44:58;;;;;;;16.30;12.15;;;15.60;99.90;;;;;;5009294;28;20034;-87
2022/07/24 03:47:24;;;;;;;16.33;12.55;;;15.60;99.90;;;;;;5009600;28;20038;-87
2022/07/24 03:49:50;;;;;;;17.73;13.20;;;15.60;99.90;;;;;;4992328;28;20037;-86
2022/07/24 03:52:15;;;;;;;15.18;12.05;;;15.60;99.90;;;;;;5028479;28;20044;-86
2022/07/24 03:54:41;;;;;;;13.50;11.13;;;15.60;99.90;;;;;;5012237;28;20025;-87
2022/07/24 03:57:08;;;;;;;15.57;12.27;;;15.60;99.90;;;;;;4996240;28;20026;-87
2022/07/24 03:59:34;;;;;;;14.15;11.23;;;15.60;99.90;;;;;;5007871;28;20484;-85
2022/07/24 04:02:00;;;;;;;14.05;11.38;;;15.60;99.90;;;;;;5040718;28;20037;-87
2022/07/24 04:04:26;;;;;;;13.70;11.25;;;15.60;99.90;;;;;;4995927;28;20044;-86
2022/07/24 04:06:52;;;;;;;17.30;11.48;;;15.60;99.90;;;;;;5029048;28;20037;-86
2022/07/24 04:09:18;;;;;;;13.77;10.63;;;15.50;99.90;;;;;;5011424;28;20126;-85
2022/07/24 04:11:45;;;;;;;13.68;10.48;;;15.60;99.90;;;;;;5021389;28;20069;-88
2022/07/24 04:14:11;;;;;;;15.55;11.35;;;15.60;99.90;;;;;;5028378;28;20053;-87
2022/07/24 04:16:37;;;;;;;13.38;11.32;;;15.50;99.90;;;;;;5012407;28;20065;-87
2022/07/24 04:19:03;;;;;;;15.23;11.68;;;15.50;99.90;;;;;;5027640;28;20049;-86
2022/07/24 04:21:29;;;;;;;14.48;10.95;;;15.50;99.90;;;;;;5028106;28;20065;-86
2022/07/24 04:23:55;;;;;;;14.15;11.88;;;15.50;99.90;;;;;;4994418;28;20515;-88
2022/07/24 04:26:21;;;;;;;14.43;11.73;;;15.50;99.90;;;;;;5028616;28;20033;-86
2022/07/24 04:28:46;;;;;;;15.90;11.98;;;15.50;99.90;;;;;;5010608;28;20132;-87
2022/07/24 04:31:12;;;;;;;14.32;11.40;;;15.60;99.90;;;;;;4992453;28;20476;-86
2022/07/24 04:33:38;;;;;;;13.73;10.90;;;15.50;99.90;;;;;;5027602;28;20030;-86
2022/07/24 04:36:05;;;;;;;15.20;10.15;;;15.60;99.90;;;;;;4995015;28;20097;-86
2022/07/24 04:38:32;;;;;;;15.30;10.95;;;15.60;99.90;;;;;;5026970;28;20026;-86
2022/07/24 04:40:58;;;;;;;13.38;10.52;;;15.60;99.90;;;;;;4997641;28;20108;-86
2022/07/24 04:43:24;;;;;;;12.23;9.95;;;15.70;99.90;;;;;;5015076;28;20120;-85
2022/07/24 04:45:50;;;;;;;15.82;11.95;;;15.70;99.90;;;;;;5046669;28;20430;-86
2022/07/24 04:48:16;;;;;;;12.57;10.63;;;15.80;99.90;;;;;;5024741;28;20026;-86
2022/07/24 04:50:41;;;;;;;15.23;11.75;;;15.80;99.90;;;;;;5013096;28;20030;-86
2022/07/24 04:53:07;;;;;;;17.33;13.10;;;15.80;99.90;;;;;;5012819;28;20044;-87
2022/07/24 04:55:33;;;;;;;18.00;13.23;;;15.90;99.90;;;;;;5012489;28;20076;-86
2022/07/24 04:57:59;;;;;;;16.33;12.52;;;15.90;99.90;;;;;;5012873;28;20053;-86
2022/07/24 05:00:25;;;;;;;17.45;13.80;;;16.00;99.90;;;;;;4996084;28;20037;-86
2022/07/24 05:02:51;;;;;;;16.15;12.38;;;16.00;99.90;;;;;;5028835;28;20033;-86
2022/07/24 05:05:16;;;;;;;20.05;15.48;;;16.10;99.90;;;;;;4980501;28;20630;-87
2022/07/24 05:07:42;;;;;;;22.45;15.43;;;16.20;99.90;;;;;;5029113;28;20030;-87
2022/07/24 05:10:08;;;;;;;17.38;13.63;;;16.30;99.90;;;;;;5012388;28;20029;-87
2022/07/24 05:12:34;;;;;;;18.80;14.32;;;16.30;99.90;;;;;;5012470;28;20065;-87
2022/07/24 05:15:00;;;;;;;17.25;13.10;;;16.40;99.90;;;;;;5012742;28;20065;-87
2022/07/24 05:17:26;;;;;;;16.52;13.10;;;16.50;99.90;;;;;;5012510;28;20079;-87
2022/07/24 05:19:52;;;;;;;17.15;13.57;;;16.60;99.90;;;;;;5012692;28;20033;-86
2022/07/24 05:22:18;;;;;;;16.15;12.73;;;16.70;99.90;;;;;;5012770;28;20030;-86
2022/07/24 05:24:43;;;;;;;17.08;13.10;;;16.80;99.90;;;;;;5012546;28;20041;-87
2022/07/24 05:27:09;;;;;;;16.52;13.10;;;16.90;99.90;;;;;;5013296;28;20037;-88
2022/07/24 05:29:35;;;;;;;14.13;11.38;;;17.00;99.90;;;;;;5014511;28;20038;-87
2022/07/24 05:32:01;;;;;;;15.02;11.82;;;17.10;99.90;;;;;;5014623;28;20083;-87
2022/07/24 05:34:26;;;;;;;11.10;9.85;;;17.20;99.90;;;;;;4982197;28;20032;-87
2022/07/24 05:36:52;;;;;;;14.00;11.43;;;17.30;99.90;;;;;;5014812;28;20030;-85
2022/07/24 05:39:18;;;;;;;14.68;10.65;;;17.60;99.90;;;;;;5013423;28;20040;-87
2022/07/24 05:41:44;;;;;;;11.55;10.07;;;17.80;99.90;;;;;;5017093;28;20492;-87
2022/07/24 05:44:10;;;;;;;13.50;10.93;;;18.20;99.90;;;;;;5017024;28;20041;-89
2022/07/24 05:46:35;;;;;;;14.18;10.23;;;18.70;99.90;;;;;;5016918;28;20032;-88
2022/07/24 05:49:02;;;;;;;10.35;8.52;;;19.10;99.90;;;;;;5015844;28;20399;-88
2022/07/24 05:51:27;;;;;;;12.13;9.73;;;19.50;99.90;;;;;;5015098;28;20026;-88
2022/07/24 05:53:53;;;;;;;11.02;8.73;;;20.00;99.90;;;;;;5015178;28;20400;-86
2022/07/24 05:56:19;;;;;;;11.80;8.48;;;20.30;99.90;;;;;;5014940;28;20060;-86
2022/07/24 05:58:45;;;;;;;10.00;8.50;;;20.70;99.90;;;;;;5031103;28;20030;-87
2022/07/24 06:01:11;;;;;;;10.95;9.40;;;21.10;99.90;;;;;;5014697;28;20424;-86
2022/07/24 06:03:36;;;;;;;9.80;7.97;;;21.20;99.90;;;;;;5031366;28;20048;-86
2022/07/24 06:06:05;;;;;;;9.23;7.65;;;21.50;99.90;;;;;;5002270;28;20041;-86
2022/07/24 06:08:30;;;;;;;12.32;8.65;;;22.00;99.90;;;;;;5031771;28;20128;-87
2022/07/24 06:10:56;;;;;;;10.45;8.15;;;22.40;99.50;;;;;;5015016;28;20132;-87
2022/07/24 06:13:22;;;;;;;9.23;7.88;;;22.90;98.30;;;;;;5030544;28;20041;-88
2022/07/24 06:15:48;;;;;;;9.52;7.45;;;23.00;95.70;;;;;;5030992;28;20029;-87
2022/07/24 06:18:14;;;;;;;9.50;7.78;;;23.20;95.70;;;;;;5014378;28;20033;-87
2022/07/24 06:20:40;;;;;;;9.43;7.80;;;23.50;94.90;;;;;;5030962;28;20096;-88
2022/07/24 06:23:06;;;;;;;9.48;8.05;;;23.70;93.70;;;;;;5029920;28;20026;-87
2022/07/24 06:25:32;;;;;;;9.90;7.20;;;24.00;93.80;;;;;;5014794;28;20505;-86
2022/07/24 06:27:58;;;;;;;8.38;7.28;;;24.40;93.10;;;;;;5015039;28;20124;-87
2022/07/24 06:30:26;;;;;;;9.50;7.78;;;24.70;92.30;;;;;;5016614;28;20038;-86
2022/07/24 06:32:55;;;;;;;8.05;7.22;;;25.20;90.20;;;;;;5014419;28;20038;-86
2022/07/24 06:35:21;;;;;;;9.20;7.22;;;25.50;90.00;;;;;;5029838;28;20120;-86
2022/07/24 06:37:49;;;;;;;7.85;7.03;;;25.70;88.50;;;;;;5048233;28;20033;-87
2022/07/24 06:40:16;;;;;;;10.48;7.97;;;25.90;87.70;;;;;;5020168;28;20060;-85
2022/07/24 06:42:43;;;;;;;11.38;9.25;;;26.10;87.60;;;;;;5031767;28;20021;-89
2022/07/24 06:45:09;;;;;;;11.38;8.93;;;26.20;85.20;;;;;;5017704;28;20056;-88
2022/07/24 06:47:35;;;;;;;11.75;9.52;;;26.10;82.40;;;;;;5018418;28;20034;-87
2022/07/24 06:50:01;;;;;;;11.65;8.70;;;26.00;83.80;;;;;;5016078;28;20499;-86
2022/07/24 06:52:27;;;;;;;11.30;8.75;;;26.00;83.80;;;;;;5031928;28;20036;-87
2022/07/24 06:54:53;;;;;;;12.15;10.32;;;26.30;82.80;;;;;;5015038;28;20116;-87
2022/07/24 06:57:19;;;;;;;12.60;9.38;;;26.40;81.90;;;;;;5013501;28;20026;-89
2022/07/24 06:59:45;;;;;;;11.40;10.25;;;26.40;83.40;;;;;;5012074;28;20065;-87
2022/07/24 07:02:11;;;;;;;11.40;10.20;;;26.60;83.70;;;;;;5030807;28;20087;-87
2022/07/24 07:04:37;;;;;;;11.15;9.25;;;26.60;83.50;;;;;;5015333;28;20029;-87
2022/07/24 07:07:03;;;;;;;11.10;9.48;;;26.90;82.20;;;;;;5030982;28;20076;-85
2022/07/24 07:09:29;;;;;;;11.02;9.15;;;27.10;79.40;;;;;;5013867;28;20029;-87
2022/07/24 07:11:55;;;;;;;11.05;8.57;;;27.30;80.20;;;;;;5015125;28;20037;-87
2022/07/24 07:14:21;;;;;;;12.05;9.48;;;27.70;79.50;;;;;;4998282;28;20167;-86
2022/07/24 07:16:50;;;;;;;12.40;9.88;;;27.90;75.90;;;;;;5031591;28;20025;-87
2022/07/24 07:19:16;;;;;;;11.02;9.95;;;28.10;75.00;;;;;;4998307;28;20038;-88
2022/07/24 07:21:42;;;;;;;10.55;9.25;;;28.10;76.30;;;;;;5018121;28;20036;-87
2022/07/24 07:24:07;;;;;;;10.70;9.02;;;27.90;76.20;;;;;;5013640;28;20033;-86
2022/07/24 07:26:33;;;;;;;11.52;9.68;;;28.00;75.10;;;;;;5030822;28;20056;-87
2022/07/24 07:29:00;;;;;;;11.63;9.75;;;28.10;76.30;;;;;;5030751;28;20065;-88
2022/07/24 07:31:27;;;;;;;11.18;10.02;;;28.20;75.10;;;;;;5013968;28;20035;-88
2022/07/24 07:33:53;;;;;;;10.60;9.32;;;28.20;73.90;;;;;;5021302;28;20174;-88
2022/07/24 07:36:22;;;;;;;11.77;9.05;;;28.40;75.10;;;;;;5019161;28;20518;-86
2022/07/24 07:38:48;;;;;;;10.27;9.25;;;28.70;73.30;;;;;;5027834;28;20033;-87
2022/07/24 07:41:14;;;;;;;9.80;8.80;;;28.90;71.30;;;;;;5011019;28;20039;-88
2022/07/24 07:43:40;;;;;;;12.18;9.60;;;29.20;71.70;;;;;;5041383;28;20041;-88
2022/07/24 07:46:07;;;;;;;8.43;7.63;;;29.60;69.30;;;;;;5027220;28;20064;-88
2022/07/24 07:48:33;;;;;;;14.07;12.63;;;29.70;69.40;;;;;;5006028;28;20048;-85
2022/07/24 07:50:59;;;;;;;8.88;7.97;;;30.00;68.10;;;;;;5044117;28;20029;-86
2022/07/24 07:53:25;;;;;;;8.38;7.57;;;29.90;67.40;;;;;;5020315;28;20103;-87
2022/07/24 07:55:52;;;;;;;9.98;8.98;;;30.20;66.10;;;;;;5035545;28;20033;-85
2022/07/24 07:58:19;;;;;;;10.45;9.05;;;30.10;64.30;;;;;;5015373;28;20439;-88
2022/07/24 08:00:45;;;;;;;9.20;8.35;;;30.00;65.80;;;;;;5018424;28;20101;-87
2022/07/24 08:03:11;;;;;;;8.90;8.02;;;29.80;64.80;;;;;;5019348;28;20060;-86
2022/07/24 08:05:36;;;;;;;10.93;8.77;;;29.60;64.60;;;;;;5017528;28;20025;-85
2022/07/24 08:08:03;;;;;;;8.55;7.75;;;29.20;64.00;;;;;;4999346;28;20523;-86
2022/07/24 08:10:29;;;;;;;8.00;7.25;;;29.00;64.60;;;;;;5032667;28;20048;-86
2022/07/24 08:12:55;;;;;;;10.20;9.20;;;28.90;65.40;;;;;;5000300;28;20044;-85
2022/07/24 08:15:21;;;;;;;9.57;8.68;;;28.60;65.60;;;;;;5028507;28;20400;-85
2022/07/24 08:17:55;;;;;;;9.15;8.20;;;28.30;68.20;;;;;;5031237;28;20546;-84
2022/07/24 08:20:23;;;;;;;8.10;7.30;;;28.30;70.20;;;;;;5014912;28;20459;-86
2022/07/24 08:22:49;;;;;;;10.40;6.68;;;28.50;65.50;;;;;;5030161;28;20033;-86
2022/07/24 08:25:16;;;;;;;6.95;6.25;;;28.60;65.10;;;;;;4996152;28;20030;-85
2022/07/24 08:27:42;;;;;;;7.45;6.47;;;28.60;65.50;;;;;;5014291;28;20025;-86
2022/07/24 08:30:08;;;;;;;7.95;7.18;;;28.40;64.70;;;;;;5024795;28;20029;-86
2022/07/24 08:32:35;;;;;;;8.38;6.95;;;28.30;66.50;;;;;;5026068;28;20030;-85
2022/07/24 08:35:01;;;;;;;8.70;6.07;;;28.40;62.80;;;;;;5031113;28;20029;-86
2022/07/24 08:37:27;;;;;;;6.03;5.30;;;28.40;64.90;;;;;;4998012;28;20492;-86
2022/07/24 08:39:56;;;;;;;6.80;5.57;;;28.40;65.00;;;;;;5034135;28;20430;-88
2022/07/24 08:42:22;;;;;;;6.82;5.28;;;28.50;59.80;;;;;;5012512;28;20034;-87
2022/07/24 08:44:49;;;;;;;6.28;5.63;;;28.40;61.60;;;;;;5016905;28;20748;-87
2022/07/24 08:47:15;;;;;;;6.15;5.55;;;28.40;64.00;;;;;;5014534;28;20033;-87
2022/07/24 08:49:44;;;;;;;6.45;5.80;;;28.40;61.60;;;;;;5025479;28;20061;-88
2022/07/24 08:52:14;;;;;;;7.18;6.03;;;28.40;60.90;;;;;;5027198;28;20053;-88
2022/07/24 08:54:40;;;;;;;6.32;5.03;;;28.30;62.20;;;;;;5032008;28;20022;-87
2022/07/24 08:57:10;;;;;;;6.13;5.35;;;28.30;61.70;;;;;;5000484;28;20026;-88
2022/07/24 08:59:36;;;;;;;8.20;5.35;;;28.40;61.20;;;;;;5023755;28;20513;-88
2022/07/24 09:02:03;;;;;;;6.60;5.05;;;28.40;63.00;;;;;;5018162;28;20079;-88
2022/07/24 09:04:41;;;;;;;6.40;5.20;;;28.50;56.80;;;;;;5022482;28;20518;-88
2022/07/24 09:07:11;;;;;;;5.72;5.13;;;28.50;60.00;;;;;;5024198;28;20025;-87
2022/07/24 09:09:39;;;;;;;6.28;5.05;;;28.30;56.60;;;;;;5045164;28;20537;-88
2022/07/24 09:12:17;;;;;;;6.35;5.75;;;28.10;59.10;;;;;;5033519;28;20080;-89
2022/07/24 09:14:48;;;;;;;6.05;5.43;;;28.10;59.10;;;;;;5036810;28;20026;-88
2022/07/24 09:17:18;;;;;;;5.93;4.80;;;28.20;61.00;;;;;;5019436;28;20037;-88
2022/07/24 09:19:51;;;;;;;5.32;4.70;;;28.30;59.30;;;;;;5019895;28;20022;-89
2022/07/24 09:22:26;;;;;;;6.20;4.97;;;28.50;58.80;;;;;;5019146;28;20232;-88
2022/07/24 09:25:08;;;;;;;5.57;4.70;;;28.60;60.50;;;;;;5018243;28;20033;-87
2022/07/24 09:27:36;;;;;;;4.85;4.45;;;28.70;59.30;;;;;;5035667;28;20037;-87
2022/07/24 09:30:04;;;;;;;5.97;5.45;;;28.80;58.50;;;;;;5016781;28;20052;-86
2022/07/24 09:32:30;;;;;;;5.88;5.00;;;28.90;57.80;;;;;;5001096;28;20065;-90
2022/07/24 09:34:58;;;;;;;5.95;5.38;;;28.90;58.10;;;;;;4985618;28;20029;-86
2022/07/24 09:37:27;;;;;;;5.35;4.85;;;28.90;61.10;;;;;;5037579;28;20029;-87
2022/07/24 09:39:53;;;;;;;5.90;5.40;;;29.00;59.50;;;;;;5019537;28;20049;-87
2022/07/24 09:42:29;;;;;;;5.57;4.97;;;29.10;58.80;;;;;;5018285;28;20065;-89
2022/07/24 09:44:58;;;;;;;5.57;5.07;;;29.20;58.50;;;;;;5016794;28;20030;-87
2022/07/24 09:47:25;;;;;;;6.45;5.13;;;29.10;56.50;;;;;;5028828;28;20065;-88
2022/07/24 09:50:09;;;;;;;5.65;5.15;;;29.00;57.90;;;;;;5017571;28;20053;-86
2022/07/24 09:52:36;;;;;;;4.90;4.50;;;28.80;58.70;;;;;;5051584;28;20057;-86
2022/07/24 09:55:02;;;;;;;5.78;5.28;;;28.80;57.90;;;;;;5013579;28;20033;-87
2022/07/24 10:16:28;;;;;;;6.27;4.80;;;28.90;57.60;;;;;;5012163;28;20076;-79
2022/07/24 10:40:14;;;;;;;7.50;5.43;;;29.10;56.70;;;;;;5004911;28;20447;-79
2022/07/24 10:43:00;;;;;;;;;;;29.30;54.50;;;;;;5024087;28;20276;-80
2022/07/24 10:45:29;;;;;;;10.95;5.38;;;29.50;56.50;;;;;;5021257;28;19913;-77
2022/07/24 10:47:56;;;;;;;8.18;5.35;;;29.60;55.60;;;;;;4978919;28;20132;-78
2022/07/24 10:50:22;;;;;;;5.60;5.10;;;29.60;55.90;;;;;;4978797;28;20096;-78
2022/07/24 10:52:48;;;;;;;7.28;5.50;;;29.60;52.50;;;;;;4987144;28;20042;-77
2022/07/24 10:55:34;;;;;;;5.63;5.13;;;29.60;52.70;;;;;;5004332;28;20026;-81
2022/07/24 10:58:01;;;;;;;6.00;5.00;;;29.60;54.10;;;;;;5021115;28;20026;-79
2022/07/24 11:00:31;;;;;;;5.38;4.93;;;29.70;54.40;;;;;;5010207;28;20041;-78
2022/07/24 11:03:16;;;;;;;6.68;5.25;;;29.80;56.30;;;;;;5009653;28;20026;-78
2022/07/24 11:05:42;;;;;;;5.78;5.22;;;29.90;51.80;;;;;;4989579;28;20026;-78
2022/07/24 11:08:20;;;;;;;6.32;5.72;;;29.90;53.20;;;;;;5007644;28;20029;-78
2022/07/24 11:10:50;;;;;;;5.07;4.68;;;30.00;55.50;;;;;;5004717;28;20472;-78
2022/07/24 11:13:31;;;;;;;6.32;5.43;;;30.00;55.10;;;;;;5003299;28;20034;-78
2022/07/24 11:16:16;;;;;;;7.10;5.57;;;29.90;53.40;;;;;;5005932;28;20030;-80
2022/07/24 11:18:41;;;;;;;6.00;5.40;;;29.90;54.90;;;;;;5007417;28;20045;-79
2022/07/24 11:21:08;;;;;;;6.07;5.57;;;29.80;55.20;;;;;;5010077;28;20032;-78
2022/07/24 11:23:35;;;;;;;6.03;5.43;;;29.70;53.50;;;;;;5009268;28;20040;-79
2022/07/24 11:26:31;;;;;;;5.85;5.32;;;29.60;53.60;;;;;;5008107;28;20116;-78
2022/07/24 11:29:15;;;;;;;6.18;5.30;;;29.40;55.30;;;;;;5009992;28;20944;-78
2022/07/24 11:31:47;;;;;;;6.03;5.40;;;29.20;55.80;;;;;;5007043;28;20038;-77
2022/07/24 11:34:13;;;;;;;5.53;4.90;;;29.10;54.80;;;;;;5004933;28;20049;-77
2022/07/24 11:36:42;;;;;;;5.57;5.07;;;29.10;58.00;;;;;;5007348;28;20099;-79
2022/07/24 11:39:08;;;;;;;6.75;5.72;;;29.20;53.30;;;;;;4988621;28;20029;-79
2022/07/24 11:41:51;;;;;;;5.95;5.35;;;29.30;54.10;;;;;;4991570;28;20392;-79
2022/07/24 11:44:47;;;;;;;5.30;4.85;;;29.20;53.30;;;;;;5006292;28;20025;-79
2022/07/24 11:47:16;;;;;;;5.47;4.97;;;29.00;52.50;;;;;;4997419;28;20045;-76
2022/07/24 11:49:46;;;;;;;5.50;5.00;;;28.80;54.00;;;;;;4999584;28;20061;-77
2022/07/24 11:52:25;;;;;;;5.35;4.85;;;28.70;54.70;;;;;;5009629;28;20042;-78
2022/07/24 11:54:55;;;;;;;6.45;5.30;;;28.60;54.90;;;;;;5007343;28;20028;-79
2022/07/24 11:57:23;;;;;;;6.55;5.30;;;28.70;56.00;;;;;;5007577;28;20030;-78
2022/07/24 11:59:56;;;;;;;6.93;5.60;;;28.80;56.50;;;;;;5067087;28;20532;-79
2022/07/24 12:02:22;;;;;;;7.25;5.32;;;29.00;57.90;;;;;;5051134;28;20037;-80
2022/07/24 12:04:49;;;;;;;5.95;5.35;;;29.10;55.80;;;;;;5043609;28;20038;-78
2022/07/24 12:07:24;;;;;;;5.80;5.20;;;29.30;52.60;;;;;;5042399;28;20032;-79
2022/07/24 12:09:51;;;;;;;6.40;5.53;;;29.50;52.10;;;;;;5055358;28;20028;-79
2022/07/24 12:12:19;;;;;;;5.63;5.05;;;29.50;53.70;;;;;;5045961;28;20655;-78
2022/07/24 12:14:45;;;;;;;6.13;5.55;;;29.50;52.50;;;;;;5048334;28;20037;-80
2022/07/24 12:17:11;;;;;;;7.68;5.90;;;29.60;52.60;;;;;;5018828;28;20033;-80
2022/07/24 12:19:37;;;;;;;5.70;5.10;;;29.60;52.50;;;;;;5037570;28;20087;-79
2022/07/24 12:22:03;;;;;;;5.97;5.35;;;29.60;53.40;;;;;;5045452;28;20040;-79
2022/07/24 12:24:31;;;;;;;5.03;4.53;;;29.70;53.50;;;;;;5049614;28;20052;-80
2022/07/24 12:26:58;;;;;;;5.80;5.30;;;29.90;55.20;;;;;;5047707;28;20039;-79
2022/07/24 12:29:26;;;;;;;5.40;4.90;;;30.10;53.20;;;;;;5052482;28;20094;-79
2022/07/24 12:32:18;;;;;;;5.03;4.53;;;30.30;52.50;;;;;;5040011;28;20036;-79
2022/07/24 12:34:48;;;;;;;6.25;5.10;;;30.60;53.60;;;;;;5036424;28;20187;-80
2022/07/24 12:37:18;;;;;;;5.35;4.85;;;30.70;50.00;;;;;;5040767;28;20025;-80
2022/07/24 12:39:52;;;;;;;4.75;4.28;;;30.80;50.50;;;;;;5043579;28;20047;-80
2022/07/24 12:42:31;;;;;;;6.20;5.55;;;31.00;50.00;;;;;;5043867;28;20032;-80
2022/07/24 12:45:09;;;;;;;5.25;4.75;;;31.20;51.30;;;;;;5045923;28;20025;-80
2022/07/24 12:48:13;;;;;;;5.20;4.70;;;31.20;51.90;;;;;;5023444;28;20025;-79
2022/07/24 12:50:39;;;;;;;5.47;4.97;;;31.00;51.40;;;;;;5038151;28;20044;-79
2022/07/24 12:53:07;;;;;;;5.40;4.88;;;30.80;51.90;;;;;;5051070;28;20036;-81
2022/07/24 12:55:33;;;;;;;5.93;5.32;;;30.40;53.00;;;;;;5053665;28;20029;-80
2022/07/24 12:58:04;;;;;;;5.70;5.20;;;30.20;51.30;;;;;;5038872;28;20039;-82
2022/07/24 13:00:31;;;;;;;5.63;5.03;;;30.20;51.70;;;;;;5038417;28;20037;-82
2022/07/24 13:02:57;;;;;;;5.70;5.20;;;30.30;50.90;;;;;;5047136;28;20097;-82
2022/07/24 13:05:37;;;;;;;5.35;4.85;;;30.40;49.80;;;;;;5041278;28;20029;-81
2022/07/24 13:08:03;;;;;;;5.70;5.20;;;30.30;50.20;;;;;;5043212;28;20033;-81
2022/07/24 13:10:29;;;;;;;5.30;4.80;;;30.00;50.80;;;;;;5028634;28;20075;-81
2022/07/24 13:12:55;;;;;;;7.60;5.00;;;29.80;51.30;;;;;;5041088;28;20025;-80
2022/07/24 13:15:20;;;;;;;5.28;4.78;;;29.60;51.60;;;;;;5035732;28;20464;-80
2022/07/24 13:17:46;;;;;;;6.32;5.40;;;29.30;51.00;;;;;;5028262;28;20040;-80